sensor_id;sensor_type;location;lat;lon;timestamp;temperature;humidity
72206;DHT22;60111;48.286;7.812;2023-02-10T00:02:22;0.00;68.00
72206;DHT22;60111;48.286;7.812;2023-02-10T00:04:55;-0.10;67.50
72206;DHT22;60111;48.286;7.812;2023-02-10T00:07:27;-0.20;68.20
72206;DHT22;60111;48.286;7.812;2023-02-10T00:10:00;-0.20;68.70
72206;DHT22;60111;48.286;7.812;2023-02-10T00:12:37;-0.20;68.70
72206;DHT22;60111;48.286;7.812;2023-02-10T00:15:10;-0.10;68.50
72206;DHT22;60111;48.286;7.812;2023-02-10T00:17:43;-0.20;67.90
72206;DHT22;60111;48.286;7.812;2023-02-10T00:20:15;-0.20;68.30
72206;DHT22;60111;48.286;7.812;2023-02-10T00:22:48;-0.20;68.70
72206;DHT22;60111;48.286;7.812;2023-02-10T00:25:21;-0.10;68.90
72206;DHT22;60111;48.286;7.812;2023-02-10T00:27:53;-0.10;68.70
72206;DHT22;60111;48.286;7.812;2023-02-10T00:30:26;0.00;68.30
72206;DHT22;60111;48.286;7.812;2023-02-10T00:32:58;-0.10;68.20
72206;DHT22;60111;48.286;7.812;2023-02-10T00:35:31;-0.20;68.20
72206;DHT22;60111;48.286;7.812;2023-02-10T00:38:04;-0.10;68.70
72206;DHT22;60111;48.286;7.812;2023-02-10T00:40:37;-0.10;69.10
72206;DHT22;60111;48.286;7.812;2023-02-10T00:43:10;-0.20;68.20
72206;DHT22;60111;48.286;7.812;2023-02-10T00:45:43;-0.20;69.50
72206;DHT22;60111;48.286;7.812;2023-02-10T00:48:15;-0.10;69.30
72206;DHT22;60111;48.286;7.812;2023-02-10T00:50:48;-0.10;68.40
72206;DHT22;60111;48.286;7.812;2023-02-10T00:53:20;-0.10;68.30
72206;DHT22;60111;48.286;7.812;2023-02-10T00:55:53;-0.10;68.60
72206;DHT22;60111;48.286;7.812;2023-02-10T00:58:26;0.00;68.60
72206;DHT22;60111;48.286;7.812;2023-02-10T01:00:58;0.00;68.00
72206;DHT22;60111;48.286;7.812;2023-02-10T01:03:31;-0.10;67.10
72206;DHT22;60111;48.286;7.812;2023-02-10T01:06:05;-0.10;67.20
72206;DHT22;60111;48.286;7.812;2023-02-10T01:08:37;-0.20;68.20
72206;DHT22;60111;48.286;7.812;2023-02-10T01:11:11;-0.20;68.00
72206;DHT22;60111;48.286;7.812;2023-02-10T01:13:44;-0.20;67.90
72206;DHT22;60111;48.286;7.812;2023-02-10T01:16:17;-0.20;67.30
72206;DHT22;60111;48.286;7.812;2023-02-10T01:18:49;-0.30;67.30
72206;DHT22;60111;48.286;7.812;2023-02-10T01:21:22;-0.40;67.80
72206;DHT22;60111;48.286;7.812;2023-02-10T01:23:55;-0.40;67.80
72206;DHT22;60111;48.286;7.812;2023-02-10T01:26:28;-0.40;68.00
72206;DHT22;60111;48.286;7.812;2023-02-10T01:29:01;-0.50;68.40
72206;DHT22;60111;48.286;7.812;2023-02-10T01:31:33;-0.50;67.90
72206;DHT22;60111;48.286;7.812;2023-02-10T01:34:06;-0.60;68.00
72206;DHT22;60111;48.286;7.812;2023-02-10T01:36:39;-0.50;68.20
72206;DHT22;60111;48.286;7.812;2023-02-10T01:39:11;-0.40;67.80
72206;DHT22;60111;48.286;7.812;2023-02-10T01:41:44;-0.40;67.80
72206;DHT22;60111;48.286;7.812;2023-02-10T01:46:56;-0.50;67.90
72206;DHT22;60111;48.286;7.812;2023-02-10T01:52:14;-0.40;67.70
72206;DHT22;60111;48.286;7.812;2023-02-10T01:54:58;-0.40;67.40
72206;DHT22;60111;48.286;7.812;2023-02-10T01:57:26;-0.50;67.10
72206;DHT22;60111;48.286;7.812;2023-02-10T02:00:01;-0.50;67.70
72206;DHT22;60111;48.286;7.812;2023-02-10T02:02:35;-0.70;68.50
72206;DHT22;60111;48.286;7.812;2023-02-10T02:05:32;-0.70;68.40
72206;DHT22;60111;48.286;7.812;2023-02-10T02:07:47;-0.70;68.10
72206;DHT22;60111;48.286;7.812;2023-02-10T02:10:22;-0.70;68.10
72206;DHT22;60111;48.286;7.812;2023-02-10T02:13:03;-0.70;68.80
72206;DHT22;60111;48.286;7.812;2023-02-10T02:29:57;-0.90;69.80
72206;DHT22;60111;48.286;7.812;2023-02-10T02:32:26;-0.80;69.60
72206;DHT22;60111;48.286;7.812;2023-02-10T02:35:02;-0.90;70.30
72206;DHT22;60111;48.286;7.812;2023-02-10T02:37:37;-0.80;69.90
72206;DHT22;60111;48.286;7.812;2023-02-10T02:40:13;-0.70;69.20
72206;DHT22;60111;48.286;7.812;2023-02-10T02:42:46;-0.80;68.90
72206;DHT22;60111;48.286;7.812;2023-02-10T02:45:26;-0.80;68.60
72206;DHT22;60111;48.286;7.812;2023-02-10T02:51:05;-1.00;68.30
72206;DHT22;60111;48.286;7.812;2023-02-10T02:53:45;-1.00;68.80
72206;DHT22;60111;48.286;7.812;2023-02-10T02:59:17;-1.00;68.80
72206;DHT22;60111;48.286;7.812;2023-02-10T03:04:31;-1.00;69.70
72206;DHT22;60111;48.286;7.812;2023-02-10T03:07:05;-1.10;69.40
72206;DHT22;60111;48.286;7.812;2023-02-10T03:09:38;-1.00;70.20
72206;DHT22;60111;48.286;7.812;2023-02-10T03:12:11;-1.10;70.10
72206;DHT22;60111;48.286;7.812;2023-02-10T03:14:44;-1.10;70.60
72206;DHT22;60111;48.286;7.812;2023-02-10T03:17:16;-1.00;70.20
72206;DHT22;60111;48.286;7.812;2023-02-10T03:19:49;-1.10;69.90
72206;DHT22;60111;48.286;7.812;2023-02-10T03:22:22;-1.20;70.00
72206;DHT22;60111;48.286;7.812;2023-02-10T03:24:54;-1.20;69.70
72206;DHT22;60111;48.286;7.812;2023-02-10T03:27:27;-1.30;69.10
72206;DHT22;60111;48.286;7.812;2023-02-10T03:29:59;-1.30;68.60
72206;DHT22;60111;48.286;7.812;2023-02-10T03:32:32;-1.40;69.20
72206;DHT22;60111;48.286;7.812;2023-02-10T03:35:05;-1.30;68.80
72206;DHT22;60111;48.286;7.812;2023-02-10T03:37:38;-1.30;68.60
72206;DHT22;60111;48.286;7.812;2023-02-10T03:40:11;-1.30;68.50
72206;DHT22;60111;48.286;7.812;2023-02-10T03:42:44;-1.30;68.70
72206;DHT22;60111;48.286;7.812;2023-02-10T03:45:16;-1.40;68.90
72206;DHT22;60111;48.286;7.812;2023-02-10T03:47:49;-1.30;69.50
72206;DHT22;60111;48.286;7.812;2023-02-10T03:50:22;-1.30;69.50
72206;DHT22;60111;48.286;7.812;2023-02-10T03:52:54;-1.30;69.40
72206;DHT22;60111;48.286;7.812;2023-02-10T03:55:27;-1.30;68.70
72206;DHT22;60111;48.286;7.812;2023-02-10T03:58:00;-1.40;69.20
72206;DHT22;60111;48.286;7.812;2023-02-10T04:00:33;-1.40;69.40
72206;DHT22;60111;48.286;7.812;2023-02-10T04:03:06;-1.40;68.90
72206;DHT22;60111;48.286;7.812;2023-02-10T04:05:38;-1.40;69.00
72206;DHT22;60111;48.286;7.812;2023-02-10T04:08:11;-1.30;69.10
72206;DHT22;60111;48.286;7.812;2023-02-10T04:10:44;-1.20;68.50
72206;DHT22;60111;48.286;7.812;2023-02-10T04:13:17;-1.20;67.70
72206;DHT22;60111;48.286;7.812;2023-02-10T04:15:59;-1.20;68.80
72206;DHT22;60111;48.286;7.812;2023-02-10T04:18:23;-1.20;67.60
72206;DHT22;60111;48.286;7.812;2023-02-10T04:20:56;-1.20;67.40
72206;DHT22;60111;48.286;7.812;2023-02-10T04:23:29;-1.20;68.00
72206;DHT22;60111;48.286;7.812;2023-02-10T04:26:03;-1.20;68.60
72206;DHT22;60111;48.286;7.812;2023-02-10T04:28:36;-1.10;69.10
72206;DHT22;60111;48.286;7.812;2023-02-10T04:31:08;-1.20;68.90
72206;DHT22;60111;48.286;7.812;2023-02-10T04:33:41;-1.10;68.90
72206;DHT22;60111;48.286;7.812;2023-02-10T04:36:14;-1.30;68.10
72206;DHT22;60111;48.286;7.812;2023-02-10T04:38:46;-1.30;68.70
72206;DHT22;60111;48.286;7.812;2023-02-10T04:41:19;-1.30;68.50
72206;DHT22;60111;48.286;7.812;2023-02-10T04:43:51;-1.40;68.30
72206;DHT22;60111;48.286;7.812;2023-02-10T04:46:24;-1.40;68.00
72206;DHT22;60111;48.286;7.812;2023-02-10T04:48:56;-1.40;68.20
72206;DHT22;60111;48.286;7.812;2023-02-10T04:51:29;-1.30;68.00
72206;DHT22;60111;48.286;7.812;2023-02-10T04:54:02;-1.20;67.80
72206;DHT22;60111;48.286;7.812;2023-02-10T04:56:35;-1.30;68.70
72206;DHT22;60111;48.286;7.812;2023-02-10T04:59:08;-1.30;69.80
72206;DHT22;60111;48.286;7.812;2023-02-10T05:01:41;-1.20;69.90
72206;DHT22;60111;48.286;7.812;2023-02-10T05:04:13;-1.10;71.60
72206;DHT22;60111;48.286;7.812;2023-02-10T05:06:46;-1.20;71.60
72206;DHT22;60111;48.286;7.812;2023-02-10T05:09:18;-1.10;71.20
72206;DHT22;60111;48.286;7.812;2023-02-10T05:11:51;-1.10;71.40
72206;DHT22;60111;48.286;7.812;2023-02-10T05:14:23;-1.10;70.40
72206;DHT22;60111;48.286;7.812;2023-02-10T05:16:56;-1.10;70.60
72206;DHT22;60111;48.286;7.812;2023-02-10T05:19:29;-1.10;71.30
72206;DHT22;60111;48.286;7.812;2023-02-10T05:22:01;-1.10;71.00
72206;DHT22;60111;48.286;7.812;2023-02-10T05:24:34;-1.00;70.90
72206;DHT22;60111;48.286;7.812;2023-02-10T05:27:07;-1.00;70.20
72206;DHT22;60111;48.286;7.812;2023-02-10T05:29:39;-1.10;70.00
72206;DHT22;60111;48.286;7.812;2023-02-10T05:32:12;-1.00;69.40
72206;DHT22;60111;48.286;7.812;2023-02-10T05:34:44;-1.00;69.10
72206;DHT22;60111;48.286;7.812;2023-02-10T05:37:17;-1.10;69.50
72206;DHT22;60111;48.286;7.812;2023-02-10T05:39:49;-1.20;68.90
72206;DHT22;60111;48.286;7.812;2023-02-10T05:42:22;-1.20;69.00
72206;DHT22;60111;48.286;7.812;2023-02-10T05:44:55;-1.20;69.50
72206;DHT22;60111;48.286;7.812;2023-02-10T05:47:27;-1.20;69.20
72206;DHT22;60111;48.286;7.812;2023-02-10T05:50:00;-1.20;69.30
72206;DHT22;60111;48.286;7.812;2023-02-10T05:52:33;-1.20;69.60
72206;DHT22;60111;48.286;7.812;2023-02-10T05:55:06;-1.10;69.80
72206;DHT22;60111;48.286;7.812;2023-02-10T05:57:38;-1.10;69.50
72206;DHT22;60111;48.286;7.812;2023-02-10T06:00:12;-1.00;70.00
72206;DHT22;60111;48.286;7.812;2023-02-10T06:02:44;-0.90;70.00
72206;DHT22;60111;48.286;7.812;2023-02-10T06:05:17;-0.90;68.50
72206;DHT22;60111;48.286;7.812;2023-02-10T06:07:49;-1.00;68.90
72206;DHT22;60111;48.286;7.812;2023-02-10T06:10:22;-1.00;68.10
72206;DHT22;60111;48.286;7.812;2023-02-10T06:12:55;-1.10;68.00
72206;DHT22;60111;48.286;7.812;2023-02-10T06:15:27;-1.20;68.60
72206;DHT22;60111;48.286;7.812;2023-02-10T06:18:00;-1.20;68.40
72206;DHT22;60111;48.286;7.812;2023-02-10T06:20:33;-1.30;68.30
72206;DHT22;60111;48.286;7.812;2023-02-10T06:23:05;-1.40;68.70
72206;DHT22;60111;48.286;7.812;2023-02-10T06:25:38;-1.40;69.60
72206;DHT22;60111;48.286;7.812;2023-02-10T06:28:11;-1.40;69.70
72206;DHT22;60111;48.286;7.812;2023-02-10T06:30:43;-1.40;69.60
72206;DHT22;60111;48.286;7.812;2023-02-10T06:33:16;-1.40;69.80
72206;DHT22;60111;48.286;7.812;2023-02-10T06:35:49;-1.50;69.40
72206;DHT22;60111;48.286;7.812;2023-02-10T06:38:21;-1.50;69.40
72206;DHT22;60111;48.286;7.812;2023-02-10T06:40:54;-1.60;70.30
72206;DHT22;60111;48.286;7.812;2023-02-10T06:43:26;-1.70;70.10
72206;DHT22;60111;48.286;7.812;2023-02-10T06:45:59;-1.70;69.40
72206;DHT22;60111;48.286;7.812;2023-02-10T06:48:32;-1.70;69.90
72206;DHT22;60111;48.286;7.812;2023-02-10T06:51:05;-1.70;69.80
72206;DHT22;60111;48.286;7.812;2023-02-10T06:53:38;-1.60;69.50
72206;DHT22;60111;48.286;7.812;2023-02-10T06:56:11;-1.60;69.50
72206;DHT22;60111;48.286;7.812;2023-02-10T06:58:44;-1.50;69.50
72206;DHT22;60111;48.286;7.812;2023-02-10T07:01:18;-1.60;69.70
72206;DHT22;60111;48.286;7.812;2023-02-10T07:03:50;-1.60;69.50
72206;DHT22;60111;48.286;7.812;2023-02-10T07:06:23;-1.60;69.80
72206;DHT22;60111;48.286;7.812;2023-02-10T07:08:55;-1.70;69.40
72206;DHT22;60111;48.286;7.812;2023-02-10T07:11:28;-1.70;68.70
72206;DHT22;60111;48.286;7.812;2023-02-10T07:14:00;-1.80;70.10
72206;DHT22;60111;48.286;7.812;2023-02-10T07:16:33;-2.00;69.30
72206;DHT22;60111;48.286;7.812;2023-02-10T07:19:06;-2.00;69.40
72206;DHT22;60111;48.286;7.812;2023-02-10T07:21:38;-1.90;69.80
72206;DHT22;60111;48.286;7.812;2023-02-10T07:24:11;-1.60;68.90
72206;DHT22;60111;48.286;7.812;2023-02-10T07:26:43;-1.70;68.80
72206;DHT22;60111;48.286;7.812;2023-02-10T07:29:16;-1.60;69.40
72206;DHT22;60111;48.286;7.812;2023-02-10T07:31:49;-1.40;68.90
72206;DHT22;60111;48.286;7.812;2023-02-10T07:34:21;-1.40;69.10
72206;DHT22;60111;48.286;7.812;2023-02-10T07:36:54;-1.50;69.40
72206;DHT22;60111;48.286;7.812;2023-02-10T07:39:27;-1.30;69.40
72206;DHT22;60111;48.286;7.812;2023-02-10T07:42:00;-1.20;67.50
72206;DHT22;60111;48.286;7.812;2023-02-10T07:44:32;-1.40;67.90
72206;DHT22;60111;48.286;7.812;2023-02-10T07:47:05;-1.50;69.00
72206;DHT22;60111;48.286;7.812;2023-02-10T07:49:38;-1.60;69.30
72206;DHT22;60111;48.286;7.812;2023-02-10T07:52:11;-1.70;69.50
72206;DHT22;60111;48.286;7.812;2023-02-10T07:54:43;-1.60;70.30
72206;DHT22;60111;48.286;7.812;2023-02-10T07:57:17;-1.40;70.00
72206;DHT22;60111;48.286;7.812;2023-02-10T07:59:49;-1.30;69.90
72206;DHT22;60111;48.286;7.812;2023-02-10T08:02:22;-1.20;70.60
72206;DHT22;60111;48.286;7.812;2023-02-10T08:04:54;-0.90;69.80
72206;DHT22;60111;48.286;7.812;2023-02-10T08:07:27;-0.80;69.80
72206;DHT22;60111;48.286;7.812;2023-02-10T08:10:00;-0.60;70.00
72206;DHT22;60111;48.286;7.812;2023-02-10T08:12:32;-0.50;70.10
72206;DHT22;60111;48.286;7.812;2023-02-10T08:15:06;-0.30;69.10
72206;DHT22;60111;48.286;7.812;2023-02-10T08:17:39;-0.30;69.30
72206;DHT22;60111;48.286;7.812;2023-02-10T08:20:13;-0.20;69.90
72206;DHT22;60111;48.286;7.812;2023-02-10T08:22:45;-0.20;70.60
72206;DHT22;60111;48.286;7.812;2023-02-10T08:25:18;0.00;69.80
72206;DHT22;60111;48.286;7.812;2023-02-10T08:27:50;0.10;69.90
72206;DHT22;60111;48.286;7.812;2023-02-10T08:30:23;0.20;70.30
72206;DHT22;60111;48.286;7.812;2023-02-10T08:32:56;0.40;70.40
72206;DHT22;60111;48.286;7.812;2023-02-10T08:35:29;0.50;69.40
72206;DHT22;60111;48.286;7.812;2023-02-10T08:38:01;0.60;70.00
72206;DHT22;60111;48.286;7.812;2023-02-10T08:40:35;0.70;69.50
72206;DHT22;60111;48.286;7.812;2023-02-10T08:43:07;1.00;68.40
72206;DHT22;60111;48.286;7.812;2023-02-10T08:45:40;1.00;69.70
72206;DHT22;60111;48.286;7.812;2023-02-10T08:48:12;1.20;68.70
72206;DHT22;60111;48.286;7.812;2023-02-10T08:50:45;1.40;68.20
72206;DHT22;60111;48.286;7.812;2023-02-10T08:53:17;1.60;67.50
72206;DHT22;60111;48.286;7.812;2023-02-10T08:55:59;1.70;66.60
72206;DHT22;60111;48.286;7.812;2023-02-10T08:58:32;1.80;66.20
72206;DHT22;60111;48.286;7.812;2023-02-10T09:01:14;1.90;65.40
72206;DHT22;60111;48.286;7.812;2023-02-10T09:03:43;2.00;64.80
72206;DHT22;60111;48.286;7.812;2023-02-10T09:06:19;2.00;65.10
72206;DHT22;60111;48.286;7.812;2023-02-10T09:08:52;2.00;65.40
72206;DHT22;60111;48.286;7.812;2023-02-10T09:11:24;2.00;64.90
72206;DHT22;60111;48.286;7.812;2023-02-10T09:13:57;2.10;65.10
72206;DHT22;60111;48.286;7.812;2023-02-10T09:16:29;2.20;65.70
72206;DHT22;60111;48.286;7.812;2023-02-10T09:19:02;2.40;65.00
72206;DHT22;60111;48.286;7.812;2023-02-10T09:21:35;2.40;64.40
72206;DHT22;60111;48.286;7.812;2023-02-10T09:24:08;2.60;64.90
72206;DHT22;60111;48.286;7.812;2023-02-10T09:26:40;2.80;64.30
72206;DHT22;60111;48.286;7.812;2023-02-10T09:29:13;2.80;64.20
72206;DHT22;60111;48.286;7.812;2023-02-10T09:31:46;3.10;64.30
72206;DHT22;60111;48.286;7.812;2023-02-10T09:34:18;3.90;61.50
72206;DHT22;60111;48.286;7.812;2023-02-10T09:36:51;5.50;56.80
72206;DHT22;60111;48.286;7.812;2023-02-10T09:39:25;7.00;52.40
72206;DHT22;60111;48.286;7.812;2023-02-10T09:42:10;7.90;49.70
72206;DHT22;60111;48.286;7.812;2023-02-10T09:44:46;9.00;47.30
72206;DHT22;60111;48.286;7.812;2023-02-10T09:50:22;10.60;43.50
72206;DHT22;60111;48.286;7.812;2023-02-10T09:53:09;11.80;41.10
72206;DHT22;60111;48.286;7.812;2023-02-10T09:56:02;13.20;38.30
72206;DHT22;60111;48.286;7.812;2023-02-10T09:58:48;14.80;35.90
72206;DHT22;60111;48.286;7.812;2023-02-10T10:01:26;15.50;34.60
72206;DHT22;60111;48.286;7.812;2023-02-10T10:04:08;15.30;34.50
72206;DHT22;60111;48.286;7.812;2023-02-10T10:06:43;14.20;36.10
72206;DHT22;60111;48.286;7.812;2023-02-10T10:12:15;12.30;39.10
72206;DHT22;60111;48.286;7.812;2023-02-10T10:14:47;10.90;40.60
72206;DHT22;60111;48.286;7.812;2023-02-10T10:31:24;8.80;46.80
72206;DHT22;60111;48.286;7.812;2023-02-10T10:33:58;8.40;47.50
72206;DHT22;60111;48.286;7.812;2023-02-10T10:36:35;8.20;48.40
72206;DHT22;60111;48.286;7.812;2023-02-10T10:39:34;8.00;49.20
72206;DHT22;60111;48.286;7.812;2023-02-10T10:42:33;7.60;49.60
72206;DHT22;60111;48.286;7.812;2023-02-10T10:45:26;7.70;49.80
72206;DHT22;60111;48.286;7.812;2023-02-10T10:50:34;8.00;49.60
72206;DHT22;60111;48.286;7.812;2023-02-10T10:53:53;8.20;49.00
72206;DHT22;60111;48.286;7.812;2023-02-10T10:55:58;8.30;49.00
72206;DHT22;60111;48.286;7.812;2023-02-10T10:58:40;8.50;48.40
72206;DHT22;60111;48.286;7.812;2023-02-10T11:01:10;8.60;48.40
72206;DHT22;60111;48.286;7.812;2023-02-10T11:03:43;8.50;47.10
72206;DHT22;60111;48.286;7.812;2023-02-10T11:06:16;8.60;47.40
72206;DHT22;60111;48.286;7.812;2023-02-10T11:09:00;8.80;46.80
72206;DHT22;60111;48.286;7.812;2023-02-10T11:11:40;8.70;47.10
72206;DHT22;60111;48.286;7.812;2023-02-10T11:14:25;8.80;47.00
72206;DHT22;60111;48.286;7.812;2023-02-10T11:16:59;8.90;46.00
72206;DHT22;60111;48.286;7.812;2023-02-10T11:19:33;8.90;46.70
72206;DHT22;60111;48.286;7.812;2023-02-10T11:22:14;8.90;46.90
72206;DHT22;60111;48.286;7.812;2023-02-10T11:24:55;8.50;46.90
72206;DHT22;60111;48.286;7.812;2023-02-10T11:27:28;8.50;47.40
72206;DHT22;60111;48.286;7.812;2023-02-10T11:30:00;8.40;48.00
72206;DHT22;60111;48.286;7.812;2023-02-10T11:32:35;8.30;48.20
72206;DHT22;60111;48.286;7.812;2023-02-10T11:35:15;8.50;49.20
72206;DHT22;60111;48.286;7.812;2023-02-10T11:37:54;8.70;48.40
72206;DHT22;60111;48.286;7.812;2023-02-10T11:40:29;9.10;47.30
72206;DHT22;60111;48.286;7.812;2023-02-10T11:43:04;9.20;46.90
72206;DHT22;60111;48.286;7.812;2023-02-10T11:45:51;9.30;46.10
72206;DHT22;60111;48.286;7.812;2023-02-10T11:48:20;9.40;45.80
72206;DHT22;60111;48.286;7.812;2023-02-10T11:51:15;9.50;46.40
72206;DHT22;60111;48.286;7.812;2023-02-10T11:53:49;9.60;45.90
72206;DHT22;60111;48.286;7.812;2023-02-10T11:56:45;9.60;45.80
72206;DHT22;60111;48.286;7.812;2023-02-10T12:02:25;9.60;45.70
72206;DHT22;60111;48.286;7.812;2023-02-10T12:07:50;9.50;45.50
72206;DHT22;60111;48.286;7.812;2023-02-10T12:13:09;9.50;45.50
72206;DHT22;60111;48.286;7.812;2023-02-10T12:15:47;9.40;45.50
72206;DHT22;60111;48.286;7.812;2023-02-10T12:21:46;9.60;45.80
72206;DHT22;60111;48.286;7.812;2023-02-10T12:24:51;9.60;45.50
72206;DHT22;60111;48.286;7.812;2023-02-10T12:27:49;9.60;45.70
72206;DHT22;60111;48.286;7.812;2023-02-10T12:29:51;9.60;45.50
72206;DHT22;60111;48.286;7.812;2023-02-10T12:35:08;9.70;45.00
72206;DHT22;60111;48.286;7.812;2023-02-10T12:37:48;9.60;45.40
72206;DHT22;60111;48.286;7.812;2023-02-10T12:40:27;9.40;45.40
72206;DHT22;60111;48.286;7.812;2023-02-10T12:49:06;9.40;45.10
72206;DHT22;60111;48.286;7.812;2023-02-10T12:54:43;9.50;44.50
72206;DHT22;60111;48.286;7.812;2023-02-10T12:57:20;9.50;44.40
72206;DHT22;60111;48.286;7.812;2023-02-10T12:59:59;9.40;44.50
72206;DHT22;60111;48.286;7.812;2023-02-10T13:02:39;9.30;45.30
72206;DHT22;60111;48.286;7.812;2023-02-10T13:05:14;9.30;44.20
72206;DHT22;60111;48.286;7.812;2023-02-10T13:07:55;9.20;45.00
72206;DHT22;60111;48.286;7.812;2023-02-10T13:10:48;9.20;45.10
72206;DHT22;60111;48.286;7.812;2023-02-10T13:13:28;9.30;45.00
72206;DHT22;60111;48.286;7.812;2023-02-10T13:16:06;9.30;44.70
72206;DHT22;60111;48.286;7.812;2023-02-10T13:18:49;9.30;45.10
72206;DHT22;60111;48.286;7.812;2023-02-10T13:21:24;9.20;45.30
72206;DHT22;60111;48.286;7.812;2023-02-10T13:23:59;9.20;46.00
72206;DHT22;60111;48.286;7.812;2023-02-10T13:26:48;9.20;45.80
72206;DHT22;60111;48.286;7.812;2023-02-10T13:29:53;9.10;46.10
72206;DHT22;60111;48.286;7.812;2023-02-10T13:35:13;8.70;47.30
72206;DHT22;60111;48.286;7.812;2023-02-10T13:37:49;8.60;47.40
72206;DHT22;60111;48.286;7.812;2023-02-10T13:40:25;8.50;48.40
72206;DHT22;60111;48.286;7.812;2023-02-10T13:43:03;8.50;48.10
72206;DHT22;60111;48.286;7.812;2023-02-10T13:45:37;8.40;47.80
72206;DHT22;60111;48.286;7.812;2023-02-10T13:48:29;8.50;48.20
72206;DHT22;60111;48.286;7.812;2023-02-10T13:51:04;8.50;47.80
72206;DHT22;60111;48.286;7.812;2023-02-10T13:53:40;8.50;47.80
72206;DHT22;60111;48.286;7.812;2023-02-10T14:04:45;8.60;48.30
72206;DHT22;60111;48.286;7.812;2023-02-10T14:12:59;8.50;47.80
72206;DHT22;60111;48.286;7.812;2023-02-10T14:15:37;8.50;47.70
72206;DHT22;60111;48.286;7.812;2023-02-10T14:18:32;8.50;47.20
72206;DHT22;60111;48.286;7.812;2023-02-10T14:21:07;8.50;46.80
72206;DHT22;60111;48.286;7.812;2023-02-10T14:23:54;8.50;46.40
72206;DHT22;60111;48.286;7.812;2023-02-10T14:26:31;8.50;46.40
72206;DHT22;60111;48.286;7.812;2023-02-10T14:29:08;8.50;46.40
72206;DHT22;60111;48.286;7.812;2023-02-10T14:31:41;8.50;47.00
72206;DHT22;60111;48.286;7.812;2023-02-10T14:37:17;8.50;45.30
72206;DHT22;60111;48.286;7.812;2023-02-10T14:39:52;8.30;45.30
72206;DHT22;60111;48.286;7.812;2023-02-10T14:42:31;8.30;44.70
72206;DHT22;60111;48.286;7.812;2023-02-10T14:45:02;8.20;45.00
72206;DHT22;60111;48.286;7.812;2023-02-10T14:47:37;8.30;45.20
72206;DHT22;60111;48.286;7.812;2023-02-10T14:50:32;8.20;46.10
72206;DHT22;60111;48.286;7.812;2023-02-10T14:53:05;8.20;47.00
72206;DHT22;60111;48.286;7.812;2023-02-10T14:55:39;8.00;47.00
72206;DHT22;60111;48.286;7.812;2023-02-10T14:58:15;8.00;46.60
72206;DHT22;60111;48.286;7.812;2023-02-10T15:03:34;7.90;45.70
72206;DHT22;60111;48.286;7.812;2023-02-10T15:06:07;7.80;45.50
72206;DHT22;60111;48.286;7.812;2023-02-10T15:08:42;7.80;45.40
72206;DHT22;60111;48.286;7.812;2023-02-10T15:11:19;7.70;44.50
72206;DHT22;60111;48.286;7.812;2023-02-10T15:14:26;7.70;43.30
72206;DHT22;60111;48.286;7.812;2023-02-10T15:17:00;7.60;43.00
72206;DHT22;60111;48.286;7.812;2023-02-10T15:19:34;7.60;43.00
72206;DHT22;60111;48.286;7.812;2023-02-10T15:22:38;7.70;42.90
72206;DHT22;60111;48.286;7.812;2023-02-10T15:25:32;7.60;41.70
72206;DHT22;60111;48.286;7.812;2023-02-10T15:30:55;7.50;42.00
72206;DHT22;60111;48.286;7.812;2023-02-10T15:33:32;7.40;42.70
72206;DHT22;60111;48.286;7.812;2023-02-10T15:36:17;7.40;43.20
72206;DHT22;60111;48.286;7.812;2023-02-10T15:38:49;7.40;43.40
72206;DHT22;60111;48.286;7.812;2023-02-10T15:41:34;7.30;44.20
72206;DHT22;60111;48.286;7.812;2023-02-10T15:47:22;7.20;44.70
72206;DHT22;60111;48.286;7.812;2023-02-10T15:49:57;7.10;45.40
72206;DHT22;60111;48.286;7.812;2023-02-10T15:52:38;7.10;46.00
72206;DHT22;60111;48.286;7.812;2023-02-10T15:57:50;7.00;46.70
72206;DHT22;60111;48.286;7.812;2023-02-10T16:00:28;7.00;46.80
72206;DHT22;60111;48.286;7.812;2023-02-10T16:03:01;6.90;46.20
72206;DHT22;60111;48.286;7.812;2023-02-10T16:05:36;6.90;45.90
72206;DHT22;60111;48.286;7.812;2023-02-10T16:08:19;6.80;46.20
72206;DHT22;60111;48.286;7.812;2023-02-10T16:10:52;6.80;46.30
72206;DHT22;60111;48.286;7.812;2023-02-10T16:13:24;6.70;46.70
72206;DHT22;60111;48.286;7.812;2023-02-10T16:15:57;6.60;46.80
72206;DHT22;60111;48.286;7.812;2023-02-10T16:18:30;6.60;46.80
72206;DHT22;60111;48.286;7.812;2023-02-10T16:21:04;6.50;46.80
72206;DHT22;60111;48.286;7.812;2023-02-10T16:23:37;6.50;47.10
72206;DHT22;60111;48.286;7.812;2023-02-10T16:26:30;6.40;47.50
72206;DHT22;60111;48.286;7.812;2023-02-10T16:28:50;6.30;47.60
72206;DHT22;60111;48.286;7.812;2023-02-10T16:31:24;6.20;48.20
72206;DHT22;60111;48.286;7.812;2023-02-10T16:33:56;6.10;48.70
72206;DHT22;60111;48.286;7.812;2023-02-10T16:36:29;6.10;48.80
72206;DHT22;60111;48.286;7.812;2023-02-10T16:39:01;6.00;49.00
72206;DHT22;60111;48.286;7.812;2023-02-10T16:41:34;5.90;49.20
72206;DHT22;60111;48.286;7.812;2023-02-10T16:44:07;5.70;48.60
72206;DHT22;60111;48.286;7.812;2023-02-10T16:46:40;5.70;48.90
72206;DHT22;60111;48.286;7.812;2023-02-10T16:49:15;5.60;50.60
72206;DHT22;60111;48.286;7.812;2023-02-10T16:51:48;5.60;50.10
72206;DHT22;60111;48.286;7.812;2023-02-10T16:54:20;5.50;51.20
72206;DHT22;60111;48.286;7.812;2023-02-10T16:56:54;5.50;51.80
72206;DHT22;60111;48.286;7.812;2023-02-10T16:59:26;5.40;52.60
72206;DHT22;60111;48.286;7.812;2023-02-10T17:01:59;5.30;52.50
72206;DHT22;60111;48.286;7.812;2023-02-10T17:04:32;5.30;51.90
72206;DHT22;60111;48.286;7.812;2023-02-10T17:07:04;5.20;52.20
72206;DHT22;60111;48.286;7.812;2023-02-10T17:09:37;5.10;52.10
72206;DHT22;60111;48.286;7.812;2023-02-10T17:12:10;5.00;52.20
72206;DHT22;60111;48.286;7.812;2023-02-10T17:14:43;4.80;52.20
72206;DHT22;60111;48.286;7.812;2023-02-10T17:17:16;4.70;52.60
72206;DHT22;60111;48.286;7.812;2023-02-10T17:19:48;4.70;52.30
72206;DHT22;60111;48.286;7.812;2023-02-10T17:22:21;4.70;52.70
72206;DHT22;60111;48.286;7.812;2023-02-10T17:24:53;4.60;53.40
72206;DHT22;60111;48.286;7.812;2023-02-10T17:27:26;4.50;54.50
72206;DHT22;60111;48.286;7.812;2023-02-10T17:29:58;4.50;54.40
72206;DHT22;60111;48.286;7.812;2023-02-10T17:32:31;4.30;54.80
72206;DHT22;60111;48.286;7.812;2023-02-10T17:35:04;4.20;55.30
72206;DHT22;60111;48.286;7.812;2023-02-10T17:37:37;4.00;56.00
72206;DHT22;60111;48.286;7.812;2023-02-10T17:40:12;4.00;56.40
72206;DHT22;60111;48.286;7.812;2023-02-10T17:42:55;4.00;56.90
72206;DHT22;60111;48.286;7.812;2023-02-10T17:45:28;3.80;57.00
72206;DHT22;60111;48.286;7.812;2023-02-10T17:48:00;3.70;57.00
72206;DHT22;60111;48.286;7.812;2023-02-10T17:50:33;3.60;57.90
72206;DHT22;60111;48.286;7.812;2023-02-10T17:53:06;3.60;58.00
72206;DHT22;60111;48.286;7.812;2023-02-10T17:55:42;3.60;58.00
72206;DHT22;60111;48.286;7.812;2023-02-10T17:58:15;3.60;58.30
72206;DHT22;60111;48.286;7.812;2023-02-10T18:00:48;3.50;58.30
72206;DHT22;60111;48.286;7.812;2023-02-10T18:03:21;3.40;58.90
72206;DHT22;60111;48.286;7.812;2023-02-10T18:05:55;3.40;59.30
72206;DHT22;60111;48.286;7.812;2023-02-10T18:08:30;3.30;59.30
72206;DHT22;60111;48.286;7.812;2023-02-10T18:11:02;3.20;59.90
72206;DHT22;60111;48.286;7.812;2023-02-10T18:13:35;3.20;59.80